Time;durP1;ratioP1;P1;durP2;ratioP2;P2;SDS_P1;SDS_P2;PMS_P1;PMS_P2;Temp;Humidity;BMP_temperature;BMP_pressure;BME280_temperature;BME280_humidity;BME280_pressure;Samples;Min_cycle;Max_cycle;Signal;HPM_P1;HPM_P2
2023/05/01 00:02:02;;;;;;;9.98;6.40;;;;;;;6.63;100.00;93081.59;5130942;27;20043;-74
2023/05/01 00:04:33;;;;;;;9.52;7.28;;;;;;;6.60;100.00;93088.84;5130045;27;20491;-73
2023/05/01 00:07:00;;;;;;;18.60;11.43;;;;;;;6.54;100.00;93086.06;5126719;27;20406;-73
2023/05/01 00:09:27;;;;;;;12.77;9.40;;;;;;;6.59;100.00;93082.97;5131009;27;20491;-73
2023/05/01 00:11:54;;;;;;;10.85;8.15;;;;;;;6.59;100.00;93089.81;5131323;27;20039;-73
2023/05/01 00:14:21;;;;;;;11.90;7.53;;;;;;;6.54;100.00;93093.72;5130532;27;20054;-73
2023/05/01 00:16:48;;;;;;;9.75;6.53;;;;;;;6.48;100.00;93097.00;5130662;27;20047;-73
2023/05/01 00:19:17;;;;;;;8.27;5.70;;;;;;;6.47;100.00;93104.88;5130433;27;20043;-74
2023/05/01 00:21:47;;;;;;;10.38;6.88;;;;;;;6.43;100.00;93103.66;5131068;27;20043;-74
2023/05/01 00:24:13;;;;;;;13.38;7.93;;;;;;;6.32;100.00;93108.31;5125917;27;20431;-73
2023/05/01 00:26:40;;;;;;;13.18;8.80;;;;;;;6.28;100.00;93109.63;5130532;27;20063;-73
2023/05/01 00:29:07;;;;;;;13.27;8.10;;;;;;;6.23;100.00;93105.09;5130370;27;20046;-73
2023/05/01 00:31:34;;;;;;;13.43;8.80;;;;;;;6.18;100.00;93093.88;5130126;27;20047;-73
2023/05/01 00:34:01;;;;;;;13.25;9.07;;;;;;;6.22;100.00;93107.84;5130354;27;20047;-72
2023/05/01 00:36:28;;;;;;;14.48;9.15;;;;;;;6.24;100.00;93108.44;5130296;27;20047;-73
2023/05/01 00:38:56;;;;;;;13.65;9.15;;;;;;;6.18;100.00;93104.88;5130386;27;20051;-72
2023/05/01 00:41:23;;;;;;;12.10;8.25;;;;;;;6.17;100.00;93107.59;5130229;27;20039;-73
2023/05/01 00:43:50;;;;;;;14.35;9.27;;;;;;;6.17;100.00;93110.16;5130407;27;20046;-73
2023/05/01 00:46:17;;;;;;;13.50;9.15;;;;;;;6.16;100.00;93109.38;5130197;27;20116;-73
2023/05/01 00:48:43;;;;;;;13.23;8.77;;;;;;;6.17;100.00;93110.16;5130371;27;20088;-73
2023/05/01 00:51:12;;;;;;;14.50;9.30;;;;;;;6.16;100.00;93104.28;5130054;27;20612;-73
2023/05/01 00:53:40;;;;;;;17.10;9.43;;;;;;;6.08;100.00;93097.53;5130105;27;20415;-72
2023/05/01 00:56:09;;;;;;;11.60;7.10;;;;;;;6.11;100.00;93112.47;5129965;27;20047;-73
2023/05/01 00:58:37;;;;;;;11.85;7.70;;;;;;;6.12;100.00;93114.03;5130351;27;20066;-72
2023/05/01 01:01:04;;;;;;;13.43;8.25;;;;;;;6.10;100.00;93125.38;5129231;27;20054;-72
2023/05/01 01:03:31;;;;;;;10.27;7.20;;;;;;;5.99;100.00;93126.66;5129484;27;20043;-72
2023/05/01 01:06:04;;;;;;;11.80;7.68;;;;;;;5.91;100.00;93125.00;5129856;27;20096;-72
2023/05/01 01:08:39;;;;;;;12.35;7.95;;;;;;;5.92;100.00;93120.72;5130017;27;20599;-72
2023/05/01 01:11:14;;;;;;;12.93;8.05;;;;;;;5.92;100.00;93129.13;5130117;27;20631;-72
2023/05/01 01:13:48;;;;;;;12.55;8.70;;;;;;;5.95;100.00;93121.13;5129282;27;20101;-73
2023/05/01 01:16:21;;;;;;;12.27;8.45;;;;;;;5.97;100.00;93131.94;5129398;27;20046;-72
2023/05/01 01:18:52;;;;;;;17.23;10.35;;;;;;;5.97;100.00;93126.06;5129664;27;20388;-72
2023/05/01 01:21:25;;;;;;;20.58;13.30;;;;;;;5.78;100.00;93110.38;5129301;27;20525;-72
2023/05/01 01:24:35;;;;;;;19.58;12.88;;;;;;;5.87;100.00;93121.25;5129107;27;20046;-72
2023/05/01 01:27:19;;;;;;;18.85;12.05;;;;;;;5.93;100.00;93127.38;5121214;27;20043;-72
2023/05/01 01:30:16;;;;;;;17.92;12.30;;;;;;;5.91;100.00;93132.66;5129006;27;20143;-72
2023/05/01 01:33:17;;;;;;;16.00;11.43;;;;;;;5.96;100.00;93127.81;5084407;27;20560;-72
2023/05/01 01:35:54;;;;;;;16.85;12.18;;;;;;;5.94;100.00;93129.75;5111376;27;20047;-72
2023/05/01 01:38:25;;;;;;;22.67;17.73;;;;;;;5.89;100.00;93122.66;5129816;27;20090;-72
2023/05/01 01:40:58;;;;;;;22.58;15.85;;;;;;;5.92;100.00;93115.63;5129840;27;20437;-72
2023/05/01 01:43:26;;;;;;;19.85;16.33;;;;;;;5.98;100.00;93125.84;5128500;27;20051;-72
2023/05/01 01:45:59;;;;;;;25.88;19.20;;;;;;;5.97;100.00;93126.84;5128744;27;20511;-72
2023/05/01 01:48:31;;;;;;;30.02;20.95;;;;;;;5.95;100.00;93122.88;5129318;27;20465;-72
2023/05/01 01:51:03;;;;;;;26.83;18.95;;;;;;;5.87;100.00;93118.69;5129163;27;20067;-72
2023/05/01 01:53:33;;;;;;;25.92;18.02;;;;;;;5.91;100.00;93124.22;5128698;27;20058;-72
2023/05/01 01:56:03;;;;;;;28.77;19.38;;;;;;;5.94;100.00;93126.41;5120567;27;20111;-74
2023/05/01 01:58:31;;;;;;;24.35;18.10;;;;;;;5.87;100.00;93119.50;5119217;27;20043;-73
2023/05/01 02:00:59;;;;;;;22.45;16.38;;;;;;;5.87;100.00;93123.78;5123613;27;20039;-72
2023/05/01 02:03:29;;;;;;;20.52;13.77;;;;;;;5.84;100.00;93124.94;5128670;27;20491;-72
2023/05/01 02:05:58;;;;;;;15.88;11.13;;;;;;;5.79;100.00;93119.59;5128460;27;20081;-73
2023/05/01 02:08:30;;;;;;;17.67;10.95;;;;;;;5.80;100.00;93115.31;5128565;27;20043;-73
2023/05/01 02:10:59;;;;;;;15.32;10.23;;;;;;;5.73;100.00;93115.25;5129115;27;20058;-73
2023/05/01 02:13:28;;;;;;;13.77;9.05;;;;;;;5.68;100.00;93122.63;5128027;27;20104;-73
2023/05/01 02:15:58;;;;;;;11.85;8.30;;;;;;;5.68;100.00;93120.09;5128386;27;20051;-73
2023/05/01 02:18:29;;;;;;;11.13;7.60;;;;;;;5.61;100.00;93118.25;5128408;27;20091;-72
2023/05/01 02:20:57;;;;;;;13.75;8.18;;;;;;;5.64;100.00;93119.66;5128262;27;20043;-73
2023/05/01 02:23:27;;;;;;;9.82;7.43;;;;;;;5.53;100.00;93103.09;5128213;27;20043;-73
2023/05/01 02:25:56;;;;;;;11.55;8.25;;;;;;;5.64;100.00;93117.13;5128303;27;20047;-72
2023/05/01 02:28:24;;;;;;;14.70;9.05;;;;;;;5.67;100.00;93118.50;5128014;27;20092;-72
2023/05/01 02:30:51;;;;;;;10.10;7.70;;;;;;;5.73;100.00;93116.03;5128449;27;20499;-72
2023/05/01 02:33:18;;;;;;;9.82;7.90;;;;;;;5.74;100.00;93111.75;5127982;27;20050;-72
2023/05/01 02:35:46;;;;;;;14.98;8.40;;;;;;;5.79;100.00;93121.38;5128313;27;20054;-72
2023/05/01 02:38:13;;;;;;;12.35;8.63;;;;;;;5.81;100.00;93119.44;5128070;27;20582;-72
2023/05/01 02:40:45;;;;;;;12.02;7.40;;;;;;;5.79;100.00;93116.28;5128091;27;20074;-72
2023/05/01 02:43:16;;;;;;;11.68;7.82;;;;;;;5.78;100.00;93120.56;5127840;27;20035;-72
2023/05/01 02:45:44;;;;;;;10.15;7.20;;;;;;;5.72;100.00;93111.13;5127773;27;20483;-72
2023/05/01 02:48:14;;;;;;;11.95;7.10;;;;;;;5.65;100.00;93121.25;5127812;27;20096;-72
2023/05/01 02:50:43;;;;;;;10.55;6.88;;;;;;;5.58;100.00;93128.03;5128056;27;20047;-72
2023/05/01 02:53:14;;;;;;;8.30;6.03;;;;;;;5.50;100.00;93130.72;5124583;27;20050;-72
2023/05/01 02:55:43;;;;;;;9.52;6.60;;;;;;;5.38;100.00;93128.63;5127310;27;20050;-72
2023/05/01 02:58:15;;;;;;;8.90;6.63;;;;;;;5.27;100.00;93132.41;5127808;27;20088;-72
2023/05/01 03:00:42;;;;;;;7.93;6.63;;;;;;;5.26;100.00;93130.03;5127677;28;20540;-72
2023/05/01 03:03:08;;;;;;;11.90;7.55;;;;;;;5.25;100.00;93131.81;5127863;28;20053;-72
2023/05/01 03:05:35;;;;;;;10.45;7.43;;;;;;;5.24;100.00;93135.34;5128262;28;20088;-72
2023/05/01 03:08:03;;;;;;;8.30;6.85;;;;;;;5.20;100.00;93131.56;5127909;28;20388;-72
2023/05/01 03:10:30;;;;;;;9.25;6.80;;;;;;;5.10;100.00;93134.38;5127588;28;20078;-72
2023/05/01 03:12:58;;;;;;;9.77;6.65;;;;;;;5.14;100.00;93135.59;5127998;28;20062;-72
2023/05/01 03:15:24;;;;;;;8.95;6.68;;;;;;;5.18;100.00;93130.94;5127612;28;20086;-72
2023/05/01 03:17:51;;;;;;;8.88;6.38;;;;;;;5.16;100.00;93132.88;5127544;28;20050;-72
2023/05/01 03:20:18;;;;;;;8.25;6.13;;;;;;;5.12;100.00;93134.19;5127365;28;20548;-72
2023/05/01 03:22:45;;;;;;;9.35;6.60;;;;;;;5.12;100.00;93135.00;5127629;28;20043;-72
2023/05/01 03:25:12;;;;;;;9.88;6.63;;;;;;;5.17;100.00;93139.53;5127368;28;20047;-72
2023/05/01 03:27:39;;;;;;;9.85;7.00;;;;;;;5.14;100.00;93134.81;5127762;28;20046;-72
2023/05/01 03:30:10;;;;;;;9.95;6.43;;;;;;;4.92;100.00;93110.06;5127698;28;20046;-72
2023/05/01 03:32:36;;;;;;;9.38;7.13;;;;;;;5.07;100.00;93140.63;5127509;28;20035;-73
2023/05/01 03:35:03;;;;;;;11.27;7.40;;;;;;;5.13;100.00;93144.19;5127303;28;20176;-72
2023/05/01 03:37:30;;;;;;;9.43;7.10;;;;;;;5.07;100.00;93127.09;5127379;28;20059;-72
2023/05/01 03:39:57;;;;;;;9.23;6.63;;;;;;;5.14;100.00;93143.22;5126960;28;20051;-72
2023/05/01 03:42:24;;;;;;;12.32;8.23;;;;;;;5.13;100.00;93144.19;5127580;28;20047;-72
2023/05/01 03:44:51;;;;;;;12.05;7.65;;;;;;;5.07;100.00;93132.19;5127219;28;20118;-72
2023/05/01 03:47:19;;;;;;;13.95;8.60;;;;;;;5.12;100.00;93145.16;5127528;28;20039;-72
2023/05/01 03:49:46;;;;;;;17.50;10.38;;;;;;;4.96;100.00;93148.72;5127570;28;20071;-72
2023/05/01 03:52:13;;;;;;;29.33;18.90;;;;;;;4.92;100.00;93147.47;5127324;28;20088;-72
2023/05/01 03:54:40;;;;;;;22.00;13.70;;;;;;;4.89;100.00;93130.78;5127318;28;20044;-72
2023/05/01 03:57:08;;;;;;;23.13;13.30;;;;;;;5.04;100.00;93147.78;5127308;28;20051;-72
2023/05/01 03:59:34;;;;;;;22.13;12.55;;;;;;;5.08;100.00;93146.50;5127488;28;20047;-72
2023/05/01 04:02:02;;;;;;;24.50;14.65;;;;;;;5.12;100.00;93150.25;5127581;28;20047;-72
2023/05/01 04:04:30;;;;;;;24.15;14.50;;;;;;;5.14;100.00;93150.09;5126843;28;20039;-72
2023/05/01 04:06:56;;;;;;;28.70;14.60;;;;;;;5.22;100.00;93155.88;5130044;27;20051;-72
2023/05/01 04:09:23;;;;;;;22.48;13.55;;;;;;;5.29;100.00;93160.25;5130481;27;20050;-72
2023/05/01 04:11:50;;;;;;;16.05;10.73;;;;;;;5.34;100.00;93163.84;5130612;27;20043;-72
2023/05/01 04:14:17;;;;;;;19.15;10.93;;;;;;;5.33;100.00;93164.03;5131158;27;20047;-72
2023/05/01 04:16:43;;;;;;;18.02;11.45;;;;;;;5.44;100.00;93162.78;5130991;27;20043;-72
2023/05/01 04:19:10;;;;;;;16.90;9.63;;;;;;;5.40;100.00;93148.81;5130854;27;20078;-72
2023/05/01 04:21:38;;;;;;;15.00;9.55;;;;;;;5.55;100.00;93162.31;5130954;27;20039;-72
2023/05/01 04:24:05;;;;;;;14.50;9.20;;;;;;;5.56;100.00;93163.88;5130776;27;20452;-72
2023/05/01 04:26:32;;;;;;;14.43;10.43;;;;;;;5.68;100.00;93169.31;5130382;27;20043;-72
2023/05/01 04:29:00;;;;;;;15.18;11.88;;;;;;;5.62;100.00;93168.25;5131004;27;20058;-72
2023/05/01 04:31:27;;;;;;;16.95;11.50;;;;;;;5.83;100.00;93165.94;5130395;27;20124;-72
2023/05/01 04:33:53;;;;;;;27.65;14.25;;;;;;;5.94;100.00;93173.09;5125360;27;20039;-72
2023/05/01 04:36:23;;;;;;;20.15;12.80;;;;;;;6.06;100.00;93172.66;5130568;27;20070;-72
2023/05/01 04:38:51;;;;;;;18.08;13.70;;;;;;;5.89;100.00;93168.53;5130016;27;20050;-72
2023/05/01 04:41:18;;;;;;;24.90;14.43;;;;;;;6.05;100.00;93174.41;5130442;27;20039;-72
2023/05/01 04:43:45;;;;;;;16.60;12.63;;;;;;;6.21;100.00;93168.25;5130100;27;20487;-72
2023/05/01 04:46:12;;;;;;;23.35;14.18;;;;;;;6.33;100.00;93172.84;5129857;27;20083;-72
2023/05/01 04:48:38;;;;;;;17.50;13.40;;;;;;;6.32;100.00;93156.78;5130301;27;20084;-72
2023/05/01 04:51:07;;;;;;;15.50;12.02;;;;;;;6.60;100.00;93178.97;5130238;27;20058;-72
2023/05/01 04:53:34;;;;;;;18.92;12.07;;;;;;;6.76;100.00;93180.44;5130000;27;20142;-73
2023/05/01 04:56:02;;;;;;;16.23;11.98;;;;;;;6.84;100.00;93176.94;5130258;27;20047;-72
2023/05/01 04:58:28;;;;;;;13.73;11.05;;;;;;;7.04;100.00;93179.63;5120303;27;20444;-72
2023/05/01 05:00:55;;;;;;;14.63;10.68;;;;;;;7.22;100.00;93174.00;5126072;27;20054;-72
2023/05/01 05:03:22;;;;;;;16.10;10.93;;;;;;;7.40;100.00;93182.94;5129957;27;20488;-72
2023/05/01 05:05:49;;;;;;;16.95;11.20;;;;;;;7.55;100.00;93187.91;5129657;27;20103;-73
2023/05/01 05:08:15;;;;;;;14.55;11.00;;;;;;;7.74;100.00;93194.06;5129982;27;20043;-73
2023/05/01 05:10:42;;;;;;;16.00;11.05;;;;;;;7.95;100.00;93189.78;5129682;27;20089;-73
2023/05/01 05:13:10;;;;;;;22.10;12.52;;;;;;;8.08;100.00;93189.03;5129790;27;20047;-73
2023/05/01 05:15:37;;;;;;;18.52;12.52;;;;;;;8.27;100.00;93184.13;5129382;27;20039;-73
2023/05/01 05:18:04;;;;;;;17.17;12.07;;;;;;;8.47;100.00;93188.50;5128917;27;20464;-73
2023/05/01 05:20:31;;;;;;;14.45;11.18;;;;;;;8.67;100.00;93194.41;5128941;27;20043;-73
2023/05/01 05:22:57;;;;;;;13.60;10.57;;;;;;;8.80;100.00;93191.06;5129408;27;20047;-73
2023/05/01 05:25:24;;;;;;;12.32;10.15;;;;;;;8.95;100.00;93193.38;5129728;27;20043;-73
2023/05/01 05:27:51;;;;;;;15.82;12.02;;;;;;;9.15;100.00;93195.13;5129366;27;21170;-73
2023/05/01 05:30:19;;;;;;;13.40;9.93;;;;;;;9.32;100.00;93205.75;5129908;27;20047;-73
2023/05/01 05:32:47;;;;;;;14.82;9.93;;;;;;;9.56;100.00;93198.38;5129471;27;20047;-73
2023/05/01 05:35:13;;;;;;;15.07;10.35;;;;;;;9.74;100.00;93196.91;5129262;27;20395;-73
2023/05/01 05:37:40;;;;;;;12.68;9.13;;;;;;;9.84;100.00;93204.16;5126476;27;20046;-73
2023/05/01 05:40:09;;;;;;;13.45;9.18;;;;;;;9.99;100.00;93201.31;5129595;27;20039;-73
2023/05/01 05:42:36;;;;;;;11.18;8.27;;;;;;;10.29;100.00;93211.03;5129716;27;20050;-73
2023/05/01 05:45:02;;;;;;;10.68;8.10;;;;;;;10.64;100.00;93212.41;5128966;27;20043;-73
2023/05/01 05:47:30;;;;;;;15.10;10.95;;;;;;;10.85;100.00;93213.00;5129121;27;20043;-73
2023/05/01 05:49:57;;;;;;;17.80;11.20;;;;;;;11.03;100.00;93209.69;5128608;27;20510;-73
2023/05/01 05:52:24;;;;;;;22.85;12.98;;;;;;;11.21;100.00;93214.09;5129788;27;20039;-73
2023/05/01 05:54:51;;;;;;;21.27;12.68;;;;;;;11.11;100.00;93222.28;5129204;27;20483;-73
2023/05/01 05:57:17;;;;;;;20.25;11.23;;;;;;;11.17;100.00;93225.78;5128881;27;20050;-73
2023/05/01 05:59:44;;;;;;;22.20;10.25;;;;;;;11.45;100.00;93227.88;5129065;27;20162;-73
2023/05/01 06:02:11;;;;;;;22.75;11.57;;;;;;;11.73;100.00;93224.03;5129240;27;20115;-74
2023/05/01 06:04:39;;;;;;;25.55;11.60;;;;;;;11.83;100.00;93207.25;5128858;27;20092;-74
2023/05/01 06:07:06;;;;;;;14.88;9.68;;;;;;;12.22;100.00;93225.03;5128769;27;20491;-74
2023/05/01 06:09:32;;;;;;;13.90;9.02;;;;;;;12.46;100.00;93223.31;5128583;27;20043;-74
2023/05/01 06:12:00;;;;;;;15.85;8.95;;;;;;;13.02;100.00;93224.81;5128394;27;20043;-73
2023/05/01 06:14:27;;;;;;;12.52;7.70;;;;;;;13.26;100.00;93225.59;5128885;27;20047;-74
2023/05/01 06:16:54;;;;;;;13.02;8.00;;;;;;;13.59;98.44;93215.72;5128672;27;20067;-74
2023/05/01 06:19:21;;;;;;;13.32;7.53;;;;;;;13.59;96.95;93220.88;5128322;27;20043;-75
2023/05/01 06:21:49;;;;;;;9.23;6.97;;;;;;;13.32;97.77;93222.13;5128432;27;20066;-74
2023/05/01 06:24:15;;;;;;;14.98;10.02;;;;;;;13.41;100.00;93214.03;5128594;27;20039;-75
2023/05/01 06:26:42;;;;;;;9.95;7.35;;;;;;;13.32;100.00;93218.75;5128529;27;20408;-74
2023/05/01 06:29:09;;;;;;;13.43;7.07;;;;;;;13.21;100.00;93225.50;5128476;27;20494;-74
2023/05/01 06:31:36;;;;;;;15.27;7.93;;;;;;;13.22;100.00;93217.53;5128612;27;20418;-74
2023/05/01 06:34:02;;;;;;;18.88;11.10;;;;;;;13.32;100.00;93224.69;5128360;27;20103;-74
2023/05/01 06:36:30;;;;;;;17.23;8.13;;;;;;;13.73;100.00;93216.25;5128028;27;20056;-74
2023/05/01 06:38:58;;;;;;;13.85;6.28;;;;;;;14.15;98.70;93216.00;5128399;27;20043;-74
2023/05/01 06:41:25;;;;;;;14.65;7.22;;;;;;;14.55;99.68;93223.88;5128570;27;20043;-74
2023/05/01 06:43:52;;;;;;;15.48;8.13;;;;;;;15.00;93.29;93213.72;5128189;27;20043;-74
2023/05/01 06:46:19;;;;;;;10.15;6.03;;;;;;;15.33;89.92;93222.47;5128212;27;20400;-74
2023/05/01 06:48:46;;;;;;;10.65;6.30;;;;;;;15.05;89.18;93224.16;5128232;27;20043;-74
2023/05/01 06:51:13;;;;;;;14.48;6.32;;;;;;;14.61;90.42;93233.28;5127550;27;20092;-74
2023/05/01 06:53:40;;;;;;;14.20;9.30;;;;;;;14.83;89.83;93230.03;5128364;27;20047;-74
2023/05/01 06:56:08;;;;;;;14.38;9.60;;;;;;;14.98;89.50;93221.72;5127778;27;20039;-74
2023/05/01 06:58:35;;;;;;;9.88;6.32;;;;;;;15.46;89.22;93232.47;5127851;27;20075;-74
2023/05/01 07:01:02;;;;;;;12.65;5.80;;;;;;;16.00;86.26;93222.50;5128159;27;20510;-73
2023/05/01 07:03:29;;;;;;;19.65;6.50;;;;;;;16.53;80.96;93227.94;5128200;27;20174;-74
2023/05/01 07:05:56;;;;;;;15.13;5.55;;;;;;;16.74;77.42;93228.13;5127881;27;20047;-74
2023/05/01 07:08:23;;;;;;;22.52;7.00;;;;;;;16.83;78.38;93238.81;5128067;28;20119;-73
2023/05/01 07:10:49;;;;;;;10.63;4.68;;;;;;;16.34;77.02;93232.69;5127630;28;20064;-75
2023/05/01 07:13:18;;;;;;;8.43;4.65;;;;;;;15.90;79.96;93239.50;5127337;28;20043;-74
2023/05/01 07:15:45;;;;;;;7.80;4.90;;;;;;;16.34;82.07;93240.47;5127737;28;20123;-74
2023/05/01 07:18:12;;;;;;;9.50;5.00;;;;;;;16.40;77.16;93243.91;5127636;28;20057;-74
2023/05/01 07:20:39;;;;;;;10.63;5.50;;;;;;;16.38;78.38;93248.56;5127820;28;20138;-74
2023/05/01 07:23:06;;;;;;;7.75;4.85;;;;;;;16.19;77.23;93248.88;5127635;28;20078;-74
2023/05/01 07:25:33;;;;;;;7.68;3.88;;;;;;;16.70;76.09;93250.38;5128065;28;20046;-74
2023/05/01 07:28:01;;;;;;;7.15;3.97;;;;;;;17.28;77.76;93246.44;5119263;28;20047;-74
2023/05/01 07:30:31;;;;;;;13.55;4.43;;;;;;;17.42;74.23;93241.56;5127926;28;20047;-74
2023/05/01 07:32:58;;;;;;;7.72;4.25;;;;;;;17.06;73.42;93250.72;5127660;28;20043;-74
2023/05/01 07:35:25;;;;;;;9.20;3.80;;;;;;;17.30;69.53;93250.34;5127990;28;20047;-74
2023/05/01 07:37:52;;;;;;;8.68;3.90;;;;;;;17.33;67.69;93243.88;5113712;28;20105;-74
2023/05/01 07:40:19;;;;;;;8.63;4.13;;;;;;;17.91;71.13;93248.28;5127970;27;20051;-74
2023/05/01 07:42:45;;;;;;;10.40;3.50;;;;;;;18.28;68.53;93234.41;5130798;27;20058;-74
2023/05/01 07:45:12;;;;;;;5.97;3.72;;;;;;;18.12;67.04;93238.78;5131142;27;20066;-75
2023/05/01 07:47:40;;;;;;;5.28;3.10;;;;;;;18.49;66.48;93247.44;5128928;27;20063;-74
2023/05/01 07:50:10;;;;;;;6.15;3.95;;;;;;;18.94;63.73;93236.56;5121098;27;20047;-74
2023/05/01 07:52:37;;;;;;;5.75;2.90;;;;;;;18.75;62.63;93241.50;5131783;27;20035;-74
2023/05/01 07:55:04;;;;;;;8.18;2.50;;;;;;;18.80;57.47;93242.25;5131700;27;20078;-74
2023/05/01 07:57:32;;;;;;;4.75;2.63;;;;;;;19.27;57.58;93236.28;5131125;27;20126;-74
2023/05/01 07:59:59;;;;;;;5.65;2.70;;;;;;;19.10;57.19;93237.34;5131609;27;20399;-74
2023/05/01 08:02:26;;;;;;;5.35;2.90;;;;;;;19.63;57.21;93241.41;5126123;27;20049;-74
2023/05/01 08:04:54;;;;;;;6.93;3.38;;;;;;;20.09;57.89;93230.03;5122894;27;20092;-75
2023/05/01 08:07:21;;;;;;;4.68;2.20;;;;;;;20.60;58.44;93233.41;5130970;27;20445;-75
2023/05/01 08:09:47;;;;;;;5.28;2.22;;;;;;;20.89;55.28;93234.53;5131157;27;20047;-75
2023/05/01 08:12:14;;;;;;;5.35;3.20;;;;;;;20.28;55.77;93240.63;5130673;27;20400;-75
2023/05/01 08:14:41;;;;;;;5.45;3.03;;;;;;;20.48;58.07;93236.38;5131027;27;20112;-75
2023/05/01 08:17:08;;;;;;;5.55;3.40;;;;;;;20.35;55.00;93244.78;5117328;27;20047;-75
2023/05/01 08:19:35;;;;;;;4.78;3.00;;;;;;;19.71;57.05;93240.84;5130875;27;20051;-74
2023/05/01 08:22:03;;;;;;;4.18;3.03;;;;;;;19.26;58.55;93243.31;5130435;27;20403;-74
2023/05/01 08:24:30;;;;;;;6.15;3.15;;;;;;;19.04;58.95;93239.19;5131034;27;20100;-74
2023/05/01 08:27:01;;;;;;;5.25;2.85;;;;;;;19.13;60.93;93236.03;5116813;27;20051;-74
2023/05/01 08:29:28;;;;;;;9.63;3.88;;;;;;;19.37;61.47;93233.66;5130651;27;20051;-75
2023/05/01 08:31:56;;;;;;;3.72;3.22;;;;;;;19.49;59.22;93243.81;5131106;27;20130;-75
2023/05/01 08:34:23;;;;;;;7.28;4.32;;;;;;;19.41;59.40;93247.72;5130401;27;20047;-74
2023/05/01 08:36:49;;;;;;;6.13;3.90;;;;;;;19.41;57.90;93246.94;5130704;27;20047;-74
2023/05/01 08:39:18;;;;;;;6.47;3.40;;;;;;;19.50;58.34;93242.75;5130631;27;20092;-74
2023/05/01 08:41:46;;;;;;;5.20;3.08;;;;;;;19.50;59.27;93240.91;5130814;27;20088;-74
2023/05/01 08:44:14;;;;;;;7.40;3.70;;;;;;;19.40;59.57;93240.97;5129902;27;20111;-74
2023/05/01 08:46:46;;;;;;;5.28;2.90;;;;;;;19.12;60.10;93237.09;5130331;27;20054;-74
2023/05/01 08:49:15;;;;;;;4.53;3.00;;;;;;;18.57;59.28;93240.97;5127484;27;20047;-74
2023/05/01 08:51:45;;;;;;;5.88;3.63;;;;;;;18.66;60.52;93228.22;5110231;28;20501;-74
2023/05/01 08:54:12;;;;;;;4.07;3.05;;;;;;;17.84;62.64;93226.97;5127314;27;20070;-74
2023/05/01 08:56:43;;;;;;;6.03;3.00;;;;;;;18.10;61.42;93238.25;5130290;27;20054;-74
2023/05/01 08:59:11;;;;;;;9.50;5.35;;;;;;;18.02;63.30;93228.34;5129348;27;20058;-74
2023/05/01 09:01:38;;;;;;;7.53;4.72;;;;;;;17.60;62.81;93212.56;5130199;27;20047;-74
2023/05/01 09:04:07;;;;;;;9.75;5.38;;;;;;;17.59;63.98;93237.00;5129700;27;20046;-75
2023/05/01 09:06:35;;;;;;;5.57;3.13;;;;;;;17.31;65.30;93240.75;5130297;27;20043;-75
2023/05/01 09:09:02;;;;;;;6.25;2.88;;;;;;;17.19;67.07;93233.13;5122067;27;20419;-75
2023/05/01 09:11:29;;;;;;;5.93;3.20;;;;;;;17.52;65.87;93240.84;5130144;27;20043;-74
2023/05/01 09:13:57;;;;;;;5.68;3.05;;;;;;;17.52;65.65;93222.66;5129310;27;20051;-75
2023/05/01 09:16:24;;;;;;;7.05;3.22;;;;;;;17.25;65.43;93236.56;5130256;27;20493;-75
2023/05/01 09:18:51;;;;;;;4.50;3.08;;;;;;;17.40;66.38;93236.63;5102765;27;20058;-75
2023/05/01 09:21:18;;;;;;;5.43;3.10;;;;;;;17.17;66.80;93225.59;5129303;27;20460;-75
2023/05/01 09:23:45;;;;;;;10.80;3.40;;;;;;;16.76;66.39;93235.66;5130054;27;20418;-74
2023/05/01 09:26:12;;;;;;;4.25;3.08;;;;;;;16.74;66.46;93219.53;5129573;27;20048;-75
2023/05/01 09:28:43;;;;;;;5.78;3.35;;;;;;;16.86;67.95;93227.97;5129602;27;20039;-74
2023/05/01 09:31:23;;;;;;;6.57;4.25;;;;;;;17.25;66.29;93226.19;5126620;27;20455;-75
2023/05/01 09:33:56;;;;;;;8.55;3.10;;;;;;;17.40;65.61;93223.66;5121072;27;20047;-74
2023/05/01 09:36:24;;;;;;;6.00;3.25;;;;;;;17.53;66.32;93216.47;5127014;27;20051;-74
2023/05/01 09:38:51;;;;;;;6.22;3.85;;;;;;;17.62;61.00;93227.91;5129357;27;20496;-74
2023/05/01 09:41:20;;;;;;;5.53;3.53;;;;;;;17.69;63.81;93225.84;5124883;27;20042;-74
2023/05/01 09:43:50;;;;;;;7.10;3.33;;;;;;;17.58;60.50;93217.25;5129530;27;20047;-74
2023/05/01 09:46:17;;;;;;;6.50;2.95;;;;;;;18.06;63.90;93224.22;5129452;27;20543;-75
2023/05/01 09:48:55;;;;;;;4.47;2.88;;;;;;;18.21;56.76;93218.28;5129468;27;20058;-75
2023/05/01 09:51:24;;;;;;;4.90;2.95;;;;;;;18.79;56.06;93216.53;5129567;27;20130;-74
2023/05/01 09:53:51;;;;;;;4.97;2.72;;;;;;;19.14;56.01;93211.56;5128497;27;20506;-75
2023/05/01 09:56:18;;;;;;;4.13;2.53;;;;;;;18.80;59.34;93199.84;5128554;27;20088;-75
2023/05/01 09:58:45;;;;;;;5.32;3.10;;;;;;;18.97;57.40;93212.59;5129222;27;20059;-74
2023/05/01 10:01:12;;;;;;;5.75;3.03;;;;;;;18.79;55.57;93206.13;5129165;27;20811;-74
2023/05/01 10:03:39;;;;;;;6.65;2.80;;;;;;;18.96;55.20;93200.63;5127997;27;20432;-75
2023/05/01 10:06:09;;;;;;;4.35;2.70;;;;;;;19.15;52.68;93190.47;5110513;27;20397;-75
2023/05/01 10:08:50;;;;;;;3.78;2.50;;;;;;;19.29;54.75;93193.31;5120896;27;20050;-75
2023/05/01 10:11:16;;;;;;;4.70;2.75;;;;;;;18.92;54.84;93189.16;5104591;27;20054;-75
2023/05/01 10:13:43;;;;;;;5.25;2.85;;;;;;;18.63;55.53;93200.91;5119626;27;20040;-74
2023/05/01 10:16:29;;;;;;;4.47;2.70;;;;;;;18.66;56.49;93207.41;5122649;27;20095;-75
2023/05/01 10:18:57;;;;;;;4.70;2.63;;;;;;;18.37;56.84;93202.72;5128823;27;20054;-75
2023/05/01 10:21:25;;;;;;;4.25;2.70;;;;;;;18.02;58.29;93200.50;5128724;27;20047;-75
2023/05/01 10:23:52;;;;;;;3.60;2.22;;;;;;;18.33;57.16;93183.44;5128795;27;20407;-75
2023/05/01 10:26:19;;;;;;;4.47;2.58;;;;;;;18.60;55.91;93200.66;5128040;27;20040;-75
2023/05/01 10:28:48;;;;;;;4.82;2.20;;;;;;;18.63;54.19;93197.50;5128554;27;20039;-75
2023/05/01 10:31:15;;;;;;;3.38;2.03;;;;;;;18.84;54.27;93193.06;5127782;27;20043;-75
2023/05/01 10:33:43;;;;;;;5.80;2.38;;;;;;;18.82;55.30;93195.97;5128160;27;20434;-74
2023/05/01 10:36:17;;;;;;;4.63;2.67;;;;;;;18.87;55.29;93199.56;5127691;27;20392;-75
2023/05/01 10:38:47;;;;;;;4.97;2.70;;;;;;;18.77;53.22;93195.97;5128183;27;20055;-74
2023/05/01 10:41:14;;;;;;;4.43;2.10;;;;;;;18.99;53.51;93201.91;5125484;27;20087;-75
2023/05/01 10:43:41;;;;;;;4.70;1.90;;;;;;;18.77;53.97;93189.97;5119964;27;20043;-75
2023/05/01 10:46:28;;;;;;;4.53;2.08;;;;;;;19.10;52.28;93193.09;5128515;27;20092;-74
2023/05/01 10:48:56;;;;;;;3.58;2.45;;;;;;;19.11;52.99;93188.66;5128504;27;20100;-74
2023/05/01 10:51:24;;;;;;;6.32;2.75;;;;;;;19.05;54.45;93182.66;5128213;27;20055;-74
2023/05/01 10:54:26;;;;;;;5.55;3.45;;;;;;;19.21;54.46;93168.59;5127656;27;20380;-75
2023/05/01 10:56:56;;;;;;;16.92;11.88;;;;;;;19.67;51.89;93173.91;5121113;27;20047;-75
2023/05/01 10:59:23;;;;;;;3.75;2.33;;;;;;;20.49;50.25;93185.72;5128105;27;20047;-74
2023/05/01 11:01:51;;;;;;;4.50;2.92;;;;;;;20.63;49.52;93172.06;5128140;27;20098;-75
2023/05/01 11:04:50;;;;;;;3.75;2.17;;;;;;;20.61;49.14;93193.22;5101326;28;20054;-75
2023/05/01 11:07:18;;;;;;;2.42;1.60;;;;;;;20.01;48.71;93186.28;5127992;27;20041;-74
2023/05/01 11:09:46;;;;;;;4.47;2.47;;;;;;;20.37;46.94;93186.06;5127487;27;20043;-75
2023/05/01 11:12:15;;;;;;;3.67;2.45;;;;;;;20.63;47.00;93187.72;5127752;28;20047;-75
2023/05/01 11:15:06;;;;;;;4.85;2.40;;;;;;;20.80;48.16;93182.91;5127393;27;20039;-75
2023/05/01 11:17:46;;;;;;;5.40;2.67;;;;;;;21.02;48.28;93193.97;5108087;27;20126;-75
2023/05/01 11:20:34;;;;;;;4.80;3.45;;;;;;;21.06;47.26;93179.31;5131571;27;20077;-74
2023/05/01 11:23:01;;;;;;;8.57;3.97;;;;;;;21.12;43.74;93191.25;5123463;27;20121;-75
2023/05/01 11:25:29;;;;;;;4.40;2.70;;;;;;;20.94;47.48;93180.47;5131963;27;20039;-74
2023/05/01 11:27:59;;;;;;;5.40;2.40;;;;;;;21.06;48.40;93182.69;5109977;27;20055;-74
2023/05/01 11:30:26;;;;;;;2.38;1.70;;;;;;;20.65;47.88;93186.38;5131969;27;20047;-75
2023/05/01 11:32:53;;;;;;;4.32;1.70;;;;;;;19.42;47.17;93196.41;5131973;27;20879;-74
2023/05/01 11:35:21;;;;;;;4.65;2.03;;;;;;;19.95;49.69;93190.72;5131846;27;20042;-74